Time;durP1;ratioP1;P1;durP2;ratioP2;P2;SDS_P1;SDS_P2;PMS_P1;PMS_P2;Temp;Humidity;BMP_temperature;BMP_pressure;BME280_temperature;BME280_humidity;BME280_pressure;Samples;Min_cycle;Max_cycle;Signal;HPM_P1;HPM_P2
2023/01/08 00:01:07;;;;;;;15.90;8.07;;;;;;;;;;5016164;28;20097;-53
2023/01/08 00:03:33;;;;;;;15.57;8.43;;;;;;;;;;5009666;28;20029;-56
2023/01/08 00:06:01;;;;;;;14.90;7.63;;;;;;;;;;5008437;28;20683;-55
2023/01/08 00:08:27;;;;;;;15.43;8.27;;;;;;;;;;4988964;28;20114;-58
2023/01/08 00:10:56;;;;;;;15.18;8.10;;;;;;;;;;4990157;28;20113;-51
2023/01/08 00:13:22;;;;;;;15.18;8.18;;;;;;;;;;4988394;28;20118;-55
2023/01/08 00:15:48;;;;;;;15.82;8.00;;;;;;;;;;4990105;28;20022;-55
2023/01/08 00:18:14;;;;;;;15.63;8.02;;;;;;;;;;4990272;28;20042;-57
2023/01/08 00:20:43;;;;;;;16.10;7.97;;;;;;;;;;4991904;28;20030;-56
2023/01/08 00:23:13;;;;;;;15.68;8.20;;;;;;;;;;4989623;28;20030;-56
2023/01/08 00:25:39;;;;;;;15.93;8.23;;;;;;;;;;4989932;28;20092;-57
2023/01/08 00:28:05;;;;;;;15.25;7.80;;;;;;;;;;4989530;28;20101;-59
2023/01/08 00:30:31;;;;;;;15.57;8.15;;;;;;;;;;4989621;28;20394;-58
2023/01/08 00:32:57;;;;;;;15.20;7.72;;;;;;;;;;5044572;23;20132;-65
2023/01/08 00:35:23;;;;;;;15.30;7.97;;;;;;;;;;5030440;28;20052;-64
2023/01/08 00:37:49;;;;;;;15.25;7.72;;;;;;;;;;5030789;28;20026;-64
2023/01/08 00:40:15;;;;;;;14.98;7.90;;;;;;;;;;5030798;28;20028;-64
2023/01/08 00:42:41;;;;;;;14.52;7.65;;;;;;;;;;5030550;28;20033;-65
2023/01/08 00:45:07;;;;;;;15.90;8.55;;;;;;;;;;5029980;28;20021;-65
2023/01/08 00:47:33;;;;;;;15.50;8.02;;;;;;;;;;5030373;28;20026;-65
2023/01/08 00:49:59;;;;;;;17.38;8.25;;;;;;;;;;5029437;28;20375;-66
2023/01/08 00:52:25;;;;;;;15.52;7.72;;;;;;;;;;5031276;28;20112;-64
2023/01/08 00:54:51;;;;;;;13.60;7.45;;;;;;;;;;5030858;28;20021;-64
2023/01/08 00:57:18;;;;;;;15.30;7.55;;;;;;;;;;5032009;28;20425;-66
2023/01/08 00:59:44;;;;;;;15.10;7.80;;;;;;;;;;5031537;28;20029;-65
2023/01/08 01:02:10;;;;;;;15.32;7.95;;;;;;;;;;5029828;28;20021;-64
2023/01/08 01:04:36;;;;;;;14.82;8.07;;;;;;;;;;5030625;28;20025;-66
2023/01/08 01:07:02;;;;;;;14.88;8.27;;;;;;;;;;5031234;28;20017;-65
2023/01/08 01:09:28;;;;;;;14.60;8.20;;;;;;;;;;5031193;28;20509;-66
2023/01/08 01:11:54;;;;;;;14.57;7.50;;;;;;;;;;5031060;28;20021;-65
2023/01/08 01:14:20;;;;;;;14.30;7.43;;;;;;;;;;5030268;28;20660;-63
2023/01/08 01:16:47;;;;;;;13.70;7.03;;;;;;;;;;5031552;28;20104;-63
2023/01/08 01:19:14;;;;;;;15.02;7.30;;;;;;;;;;5029746;28;20029;-64
2023/01/08 01:21:40;;;;;;;15.93;7.60;;;;;;;;;;5031033;28;20049;-65
2023/01/08 01:24:06;;;;;;;14.50;7.38;;;;;;;;;;5029011;28;20035;-65
2023/01/08 01:26:32;;;;;;;13.65;7.10;;;;;;;;;;5030887;28;20030;-63
2023/01/08 01:28:59;;;;;;;14.50;7.70;;;;;;;;;;5030853;28;20548;-65
2023/01/08 01:31:26;;;;;;;15.00;7.30;;;;;;;;;;5030654;28;20037;-66
2023/01/08 01:33:52;;;;;;;14.15;7.18;;;;;;;;;;5030172;28;20045;-65
2023/01/08 01:36:19;;;;;;;14.05;6.75;;;;;;;;;;5029504;28;20478;-64
2023/01/08 01:38:46;;;;;;;13.30;6.75;;;;;;;;;;5030856;28;20528;-65
2023/01/08 01:41:23;;;;;;;13.45;6.72;;;;;;;;;;5030724;28;20427;-65
2023/01/08 01:43:49;;;;;;;13.77;7.13;;;;;;;;;;5029923;28;20025;-63
2023/01/08 01:46:30;;;;;;;14.90;7.20;;;;;;;;;;5030767;28;20017;-66
2023/01/08 01:48:58;;;;;;;14.95;7.68;;;;;;;;;;5030937;28;20052;-64
2023/01/08 01:51:26;;;;;;;14.75;7.68;;;;;;;;;;5029286;28;20076;-65
2023/01/08 01:53:52;;;;;;;14.27;7.18;;;;;;;;;;5029573;28;20068;-69
2023/01/08 01:56:18;;;;;;;12.73;6.75;;;;;;;;;;5029189;28;20111;-66
2023/01/08 01:58:44;;;;;;;13.52;7.25;;;;;;;;;;5030583;28;20065;-65
2023/01/08 02:01:10;;;;;;;13.52;7.22;;;;;;;;;;5030516;28;20057;-66
2023/01/08 02:03:37;;;;;;;13.55;7.25;;;;;;;;;;5028415;28;20026;-66
2023/01/08 02:06:23;;;;;;;14.02;6.88;;;;;;;;;;5030414;28;20094;-64
2023/01/08 02:08:49;;;;;;;13.55;7.03;;;;;;;;;;5030479;28;20552;-66
2023/01/08 02:11:34;;;;;;;13.52;6.82;;;;;;;;;;5029043;28;20093;-65
2023/01/08 02:14:02;;;;;;;14.50;7.50;;;;;;;;;;5029557;28;20036;-66
2023/01/08 02:16:39;;;;;;;13.57;7.20;;;;;;;;;;5030634;28;20505;-65
2023/01/08 02:19:24;;;;;;;14.75;7.55;;;;;;;;;;5030719;28;20022;-65
2023/01/08 02:21:50;;;;;;;13.02;6.65;;;;;;;;;;5029246;28;20026;-65
2023/01/08 02:24:16;;;;;;;13.80;7.15;;;;;;;;;;5029832;28;20389;-65
2023/01/08 02:26:44;;;;;;;14.45;7.70;;;;;;;;;;5030159;28;20026;-66
2023/01/08 02:29:13;;;;;;;14.27;7.70;;;;;;;;;;5030399;28;20496;-65
2023/01/08 02:31:41;;;;;;;15.38;8.30;;;;;;;;;;5028548;28;20037;-65
2023/01/08 02:34:07;;;;;;;14.27;7.88;;;;;;;;;;5029436;28;20366;-65
2023/01/08 02:36:39;;;;;;;13.88;7.40;;;;;;;;;;5030070;28;20029;-64
2023/01/08 02:39:15;;;;;;;14.95;7.50;;;;;;;;;;5028797;28;20017;-64
2023/01/08 02:41:52;;;;;;;13.52;6.85;;;;;;;;;;5029872;28;20028;-65
2023/01/08 02:44:25;;;;;;;15.23;7.80;;;;;;;;;;5028132;28;20017;-65
2023/01/08 02:46:51;;;;;;;13.68;7.07;;;;;;;;;;5028567;28;20087;-64
2023/01/08 02:49:19;;;;;;;13.80;7.20;;;;;;;;;;5029856;28;20470;-66
2023/01/08 02:51:48;;;;;;;14.38;7.00;;;;;;;;;;5029712;28;20030;-66
2023/01/08 02:54:17;;;;;;;15.98;7.60;;;;;;;;;;5027737;28;20033;-65
2023/01/08 02:56:48;;;;;;;14.55;7.57;;;;;;;;;;5029671;28;20025;-63
2023/01/08 02:59:15;;;;;;;16.83;7.90;;;;;;;;;;5029930;28;20053;-65
2023/01/08 03:01:41;;;;;;;15.07;7.65;;;;;;;;;;5028388;28;20041;-67
2023/01/08 03:04:14;;;;;;;15.70;7.22;;;;;;;;;;5029684;28;20415;-65
2023/01/08 03:06:40;;;;;;;14.80;7.50;;;;;;;;;;5033539;28;20029;-65
2023/01/08 03:09:06;;;;;;;14.90;7.28;;;;;;;;;;5033274;28;20025;-66
2023/01/08 03:11:36;;;;;;;14.68;7.13;;;;;;;;;;5032998;28;20053;-65
2023/01/08 03:14:06;;;;;;;14.73;7.38;;;;;;;;;;5032496;28;20424;-65
2023/01/08 03:16:34;;;;;;;14.52;7.72;;;;;;;;;;5031761;28;20164;-66
2023/01/08 03:19:12;;;;;;;13.90;7.28;;;;;;;;;;5033025;28;20555;-66
2023/01/08 03:21:39;;;;;;;14.02;7.40;;;;;;;;;;5032995;28;20029;-66
2023/01/08 03:24:06;;;;;;;13.90;7.15;;;;;;;;;;5030899;28;20124;-66
2023/01/08 03:26:32;;;;;;;13.90;7.28;;;;;;;;;;5031701;28;20075;-65
2023/01/08 03:28:58;;;;;;;14.95;7.28;;;;;;;;;;5033119;28;20032;-66
2023/01/08 03:31:26;;;;;;;13.80;7.30;;;;;;;;;;5032787;28;20483;-66
2023/01/08 03:33:53;;;;;;;14.10;7.70;;;;;;;;;;5032114;28;20021;-66
2023/01/08 03:36:21;;;;;;;14.07;7.20;;;;;;;;;;5032754;28;20075;-66
2023/01/08 03:38:51;;;;;;;14.68;7.40;;;;;;;;;;5032739;28;20058;-65
2023/01/08 03:41:19;;;;;;;14.68;7.50;;;;;;;;;;5032480;28;20032;-65
2023/01/08 03:43:47;;;;;;;14.77;7.20;;;;;;;;;;5031977;28;20053;-67
2023/01/08 03:46:16;;;;;;;16.27;8.75;;;;;;;;;;5031572;28;20417;-65
2023/01/08 03:48:42;;;;;;;14.38;7.15;;;;;;;;;;5031380;28;20029;-64
2023/01/08 03:51:09;;;;;;;15.13;7.60;;;;;;;;;;5033784;28;20030;-65
2023/01/08 03:53:36;;;;;;;14.43;7.45;;;;;;;;;;5030405;28;20362;-65
2023/01/08 03:56:02;;;;;;;15.27;7.40;;;;;;;;;;5031056;28;20055;-65
2023/01/08 03:58:28;;;;;;;17.67;7.72;;;;;;;;;;5032296;28;20080;-65
2023/01/08 04:00:54;;;;;;;16.95;8.18;;;;;;;;;;5032286;28;20053;-65
2023/01/08 04:03:20;;;;;;;14.40;7.75;;;;;;;;;;5031434;28;20076;-65
2023/01/08 04:05:46;;;;;;;15.35;7.50;;;;;;;;;;5032410;28;20030;-66
2023/01/08 04:08:12;;;;;;;15.07;7.30;;;;;;;;;;5032218;28;20145;-65
2023/01/08 04:10:38;;;;;;;13.65;7.20;;;;;;;;;;5032148;28;20041;-66
2023/01/08 04:13:04;;;;;;;14.32;7.30;;;;;;;;;;5031684;28;20541;-66
2023/01/08 04:15:30;;;;;;;15.68;7.53;;;;;;;;;;5031763;28;20104;-65
2023/01/08 04:17:56;;;;;;;15.05;7.65;;;;;;;;;;5032196;28;20105;-65
2023/01/08 04:20:22;;;;;;;14.60;7.70;;;;;;;;;;5031935;28;20030;-66
2023/01/08 04:22:48;;;;;;;16.63;8.10;;;;;;;;;;5032024;28;20533;-64
2023/01/08 04:25:14;;;;;;;15.57;7.82;;;;;;;;;;5031370;28;20111;-64
2023/01/08 04:27:40;;;;;;;14.95;7.70;;;;;;;;;;5030637;28;20684;-65
2023/01/08 04:30:06;;;;;;;17.33;7.95;;;;;;;;;;5032020;28;20037;-64
2023/01/08 04:32:32;;;;;;;15.65;7.60;;;;;;;;;;5031688;28;20029;-65
2023/01/08 04:34:58;;;;;;;14.60;7.85;;;;;;;;;;5029776;28;20043;-64
2023/01/08 04:37:24;;;;;;;16.35;8.43;;;;;;;;;;5031647;28;20070;-64
2023/01/08 04:39:50;;;;;;;15.30;7.88;;;;;;;;;;5030596;28;20448;-64
2023/01/08 04:42:16;;;;;;;14.43;7.60;;;;;;;;;;5029994;28;20048;-65
2023/01/08 04:44:42;;;;;;;15.20;7.95;;;;;;;;;;5030750;28;20267;-66
2023/01/08 04:47:08;;;;;;;15.73;7.72;;;;;;;;;;5031367;28;20080;-66
2023/01/08 04:49:34;;;;;;;15.35;8.05;;;;;;;;;;5031324;28;20065;-65
2023/01/08 04:52:00;;;;;;;16.23;8.05;;;;;;;;;;5031282;28;20021;-66
2023/01/08 04:54:26;;;;;;;14.85;8.15;;;;;;;;;;5029101;28;20113;-66
2023/01/08 04:56:52;;;;;;;15.25;8.00;;;;;;;;;;5031153;28;20029;-66
2023/01/08 04:59:18;;;;;;;15.63;8.30;;;;;;;;;;5029793;28;20064;-65
2023/01/08 05:01:44;;;;;;;15.88;8.43;;;;;;;;;;5031075;28;20017;-64
2023/01/08 05:04:10;;;;;;;13.98;7.55;;;;;;;;;;5030218;28;20025;-65
2023/01/08 05:06:36;;;;;;;15.80;8.32;;;;;;;;;;5030735;28;20175;-65
2023/01/08 05:09:03;;;;;;;14.63;7.82;;;;;;;;;;5030941;28;20032;-65
2023/01/08 05:11:29;;;;;;;14.77;7.63;;;;;;;;;;5030688;28;20108;-63
2023/01/08 05:13:55;;;;;;;13.52;7.40;;;;;;;;;;5028188;28;20022;-65
2023/01/08 05:16:22;;;;;;;14.88;7.53;;;;;;;;;;5030672;28;20475;-65
2023/01/08 05:18:48;;;;;;;14.32;7.70;;;;;;;;;;5030765;28;20079;-64
2023/01/08 05:21:14;;;;;;;14.43;8.20;;;;;;;;;;5029477;28;20037;-65
2023/01/08 05:23:40;;;;;;;15.02;7.88;;;;;;;;;;5030142;28;20025;-64
2023/01/08 05:26:06;;;;;;;13.95;7.35;;;;;;;;;;5030507;28;20367;-65
2023/01/08 05:28:33;;;;;;;14.95;7.80;;;;;;;;;;5030103;28;20077;-65
2023/01/08 05:30:59;;;;;;;14.55;7.90;;;;;;;;;;5029132;28;20425;-62
2023/01/08 05:33:25;;;;;;;15.63;7.63;;;;;;;;;;5028278;28;20087;-66
2023/01/08 05:35:51;;;;;;;14.07;7.65;;;;;;;;;;5030577;28;20040;-65
2023/01/08 05:38:18;;;;;;;15.70;8.10;;;;;;;;;;5030715;28;20021;-66
2023/01/08 05:40:44;;;;;;;14.02;7.53;;;;;;;;;;5030614;28;20053;-65
2023/01/08 05:43:10;;;;;;;14.30;7.72;;;;;;;;;;5029816;28;20476;-65
2023/01/08 05:45:36;;;;;;;16.52;7.90;;;;;;;;;;5030511;28;20482;-66
2023/01/08 05:48:06;;;;;;;14.73;7.60;;;;;;;;;;5030553;28;20036;-64
2023/01/08 05:50:32;;;;;;;14.02;7.65;;;;;;;;;;5030388;28;20032;-66
2023/01/08 05:52:58;;;;;;;13.70;7.30;;;;;;;;;;5028980;28;20033;-65
2023/01/08 05:55:24;;;;;;;14.90;7.47;;;;;;;;;;5027667;28;20021;-65
2023/01/08 05:57:50;;;;;;;14.32;7.82;;;;;;;;;;5028713;28;20021;-64
2023/01/08 06:00:16;;;;;;;16.25;7.63;;;;;;;;;;5030298;28;20026;-63
2023/01/08 06:02:48;;;;;;;13.90;7.55;;;;;;;;;;5028831;28;20025;-66
2023/01/08 06:05:14;;;;;;;14.07;7.80;;;;;;;;;;5029383;28;20029;-66
2023/01/08 06:07:40;;;;;;;14.50;7.60;;;;;;;;;;5029953;28;20030;-65
2023/01/08 06:10:07;;;;;;;14.13;7.30;;;;;;;;;;5030082;28;20117;-66
2023/01/08 06:12:33;;;;;;;13.75;7.20;;;;;;;;;;5029917;28;20025;-66
2023/01/08 06:14:59;;;;;;;14.30;7.30;;;;;;;;;;5029635;28;20506;-65
2023/01/08 06:17:25;;;;;;;13.82;7.55;;;;;;;;;;5030306;28;20080;-65
2023/01/08 06:19:51;;;;;;;14.30;7.20;;;;;;;;;;5030120;28;20389;-66
2023/01/08 06:22:17;;;;;;;13.43;7.13;;;;;;;;;;5030605;28;20029;-66
2023/01/08 06:24:43;;;;;;;13.35;7.00;;;;;;;;;;5030007;28;20064;-66
2023/01/08 06:27:09;;;;;;;13.23;7.20;;;;;;;;;;5030116;28;20024;-65
2023/01/08 06:29:35;;;;;;;13.13;6.70;;;;;;;;;;5029954;28;20014;-65
2023/01/08 06:32:01;;;;;;;13.60;7.03;;;;;;;;;;5038286;22;20042;-59
2023/01/08 06:34:27;;;;;;;12.32;6.65;;;;;;;;;;4989866;28;20065;-60
2023/01/08 06:36:53;;;;;;;12.80;6.93;;;;;;;;;;4990707;28;20485;-60
2023/01/08 06:39:19;;;;;;;12.70;6.65;;;;;;;;;;4994456;28;20026;-57
2023/01/08 06:41:45;;;;;;;16.13;8.70;;;;;;;;;;4994275;28;20033;-57
2023/01/08 06:44:11;;;;;;;13.82;7.10;;;;;;;;;;4993768;28;20022;-56
2023/01/08 06:46:39;;;;;;;13.68;7.28;;;;;;;;;;4995564;28;20105;-58
2023/01/08 06:49:08;;;;;;;13.35;7.30;;;;;;;;;;4994447;28;20475;-60
2023/01/08 06:51:35;;;;;;;14.50;7.40;;;;;;;;;;4994171;28;20034;-59
2023/01/08 06:54:01;;;;;;;13.23;7.25;;;;;;;;;;4994636;28;20022;-59
2023/01/08 06:56:27;;;;;;;14.43;7.35;;;;;;;;;;4995285;28;20097;-58
2023/01/08 06:58:53;;;;;;;13.57;7.13;;;;;;;;;;4995890;28;20080;-58
2023/01/08 07:01:21;;;;;;;13.80;7.00;;;;;;;;;;4995355;28;20532;-59
2023/01/08 07:03:47;;;;;;;14.05;7.38;;;;;;;;;;4994437;28;20027;-60
2023/01/08 07:06:17;;;;;;;14.13;7.53;;;;;;;;;;4993880;28;20034;-60
2023/01/08 07:08:44;;;;;;;13.50;7.10;;;;;;;;;;4993919;28;20038;-58
2023/01/08 07:11:10;;;;;;;13.75;6.93;;;;;;;;;;4993962;28;20479;-57
2023/01/08 07:13:36;;;;;;;14.25;7.20;;;;;;;;;;4994006;28;20081;-58
2023/01/08 07:16:08;;;;;;;13.30;7.20;;;;;;;;;;4994908;28;20022;-58
2023/01/08 07:18:35;;;;;;;13.65;7.20;;;;;;;;;;4994945;28;20080;-59
2023/01/08 07:21:02;;;;;;;14.27;7.47;;;;;;;;;;4995050;28;20437;-60
2023/01/08 07:23:28;;;;;;;15.80;7.60;;;;;;;;;;4994142;28;20038;-54
2023/01/08 07:25:54;;;;;;;12.82;6.95;;;;;;;;;;4994793;28;20038;-57
2023/01/08 07:28:20;;;;;;;13.02;6.70;;;;;;;;;;4993897;28;20027;-57
2023/01/08 07:30:46;;;;;;;12.05;6.35;;;;;;;;;;5009155;28;20494;-57
2023/01/08 07:33:12;;;;;;;12.00;6.32;;;;;;;;;;5014161;28;20033;-61
2023/01/08 07:35:38;;;;;;;13.70;6.50;;;;;;;;;;5015150;28;20025;-57
2023/01/08 07:38:04;;;;;;;13.43;7.15;;;;;;;;;;5013236;28;20026;-60
2023/01/08 07:40:33;;;;;;;16.17;8.15;;;;;;;;;;5013083;28;20117;-59
2023/01/08 07:43:00;;;;;;;14.57;7.97;;;;;;;;;;5014128;28;20033;-59
2023/01/08 07:45:27;;;;;;;14.90;8.70;;;;;;;;;;5013605;28;20050;-59
2023/01/08 07:47:53;;;;;;;15.25;8.07;;;;;;;;;;5012818;28;20025;-59
2023/01/08 07:50:19;;;;;;;13.65;7.72;;;;;;;;;;5013152;28;20030;-60
2023/01/08 07:52:45;;;;;;;14.23;8.13;;;;;;;;;;5013636;28;20034;-59
2023/01/08 07:55:11;;;;;;;15.23;8.00;;;;;;;;;;5012115;28;20026;-59
2023/01/08 07:57:37;;;;;;;14.15;7.97;;;;;;;;;;4996654;28;20026;-60
2023/01/08 08:00:03;;;;;;;14.18;8.07;;;;;;;;;;4994418;28;20491;-59
2023/01/08 08:02:29;;;;;;;14.43;8.07;;;;;;;;;;4993006;28;20164;-58
2023/01/08 08:04:55;;;;;;;16.90;7.95;;;;;;;;;;4992227;28;20124;-59
2023/01/08 08:07:21;;;;;;;14.15;7.90;;;;;;;;;;4994403;28;20018;-59
2023/01/08 08:09:47;;;;;;;14.93;9.00;;;;;;;;;;4994346;28;20637;-55
2023/01/08 08:12:13;;;;;;;16.52;8.90;;;;;;;;;;4994025;28;20110;-55
2023/01/08 08:14:39;;;;;;;17.13;8.98;;;;;;;;;;4993454;28;20037;-59
2023/01/08 08:17:05;;;;;;;14.63;9.10;;;;;;;;;;4994004;28;20026;-59
2023/01/08 08:19:31;;;;;;;14.45;8.63;;;;;;;;;;4993924;28;20026;-59
2023/01/08 08:21:57;;;;;;;16.02;9.57;;;;;;;;;;4993783;28;20458;-59
2023/01/08 08:24:23;;;;;;;15.95;9.10;;;;;;;;;;4993092;28;20101;-61
2023/01/08 08:26:50;;;;;;;15.65;8.75;;;;;;;;;;4993753;28;20028;-57
2023/01/08 08:29:16;;;;;;;15.18;8.52;;;;;;;;;;4992572;28;20022;-64
2023/01/08 08:31:42;;;;;;;14.85;8.88;;;;;;;;;;4992468;28;20025;-66
2023/01/08 08:34:08;;;;;;;15.55;9.35;;;;;;;;;;4991787;28;20057;-62
2023/01/08 08:36:34;;;;;;;14.82;9.27;;;;;;;;;;4992552;28;20015;-62
2023/01/08 08:39:01;;;;;;;17.25;9.60;;;;;;;;;;4993663;28;20027;-62
2023/01/08 08:41:27;;;;;;;15.60;9.60;;;;;;;;;;4993467;28;20047;-60
2023/01/08 08:43:53;;;;;;;16.48;10.10;;;;;;;;;;4992745;28;20038;-62
2023/01/08 08:46:19;;;;;;;16.30;9.88;;;;;;;;;;4993357;28;20030;-62
2023/01/08 08:48:45;;;;;;;16.15;9.90;;;;;;;;;;4993334;28;20026;-62
2023/01/08 08:51:12;;;;;;;15.18;9.38;;;;;;;;;;4993274;28;20057;-63
2023/01/08 08:53:38;;;;;;;18.05;9.63;;;;;;;;;;4992096;28;20470;-61
2023/01/08 08:56:04;;;;;;;15.30;9.40;;;;;;;;;;4992991;28;20029;-58
2023/01/08 08:58:30;;;;;;;14.80;9.10;;;;;;;;;;4992142;28;20076;-62
2023/01/08 09:01:00;;;;;;;16.35;8.98;;;;;;;;;;4992763;28;20102;-61
2023/01/08 09:03:26;;;;;;;15.32;8.45;;;;;;;;;;4987484;28;20045;-61
2023/01/08 09:05:52;;;;;;;15.02;8.40;;;;;;;;;;4991783;28;20038;-62
2023/01/08 09:08:18;;;;;;;15.13;7.80;;;;;;;;;;4993213;28;20077;-61
2023/01/08 09:10:44;;;;;;;15.88;8.30;;;;;;;;;;4991676;28;20022;-60
2023/01/08 09:13:11;;;;;;;15.25;7.90;;;;;;;;;;4990805;28;20034;-62
2023/01/08 09:15:37;;;;;;;18.20;9.15;;;;;;;;;;4992918;28;20101;-60
2023/01/08 09:18:03;;;;;;;16.40;10.15;;;;;;;;;;4992399;28;20121;-62
2023/01/08 09:20:30;;;;;;;14.27;8.80;;;;;;;;;;4992994;28;20394;-62
2023/01/08 09:22:59;;;;;;;16.35;8.55;;;;;;;;;;4992745;28;20057;-60
2023/01/08 09:25:25;;;;;;;14.80;8.07;;;;;;;;;;4991083;28;20026;-62
2023/01/08 09:28:18;;;;;;;15.27;8.50;;;;;;;;;;4993859;28;20041;-63
2023/01/08 09:30:44;;;;;;;16.25;8.85;;;;;;;;;;5005737;28;20130;-63
2023/01/08 09:33:10;;;;;;;15.75;8.70;;;;;;;;;;5011532;28;20049;-63
2023/01/08 09:35:36;;;;;;;15.85;8.30;;;;;;;;;;5011144;28;20109;-64
2023/01/08 09:38:02;;;;;;;15.15;8.48;;;;;;;;;;5012868;28;20129;-63
2023/01/08 09:40:31;;;;;;;16.10;8.63;;;;;;;;;;5011130;28;20018;-63
2023/01/08 09:43:00;;;;;;;13.85;7.72;;;;;;;;;;5011957;28;20037;-62
2023/01/08 09:45:27;;;;;;;16.13;7.60;;;;;;;;;;5012038;28;20355;-63
2023/01/08 09:47:54;;;;;;;15.20;7.93;;;;;;;;;;5012306;28;20117;-63
2023/01/08 09:50:21;;;;;;;14.60;7.65;;;;;;;;;;5013285;28;20030;-61
2023/01/08 09:52:47;;;;;;;18.00;8.43;;;;;;;;;;5013452;28;20117;-62
2023/01/08 09:55:14;;;;;;;14.27;7.75;;;;;;;;;;5014185;28;20022;-61
2023/01/08 09:57:40;;;;;;;14.60;7.43;;;;;;;;;;4994223;28;20027;-62
2023/01/08 10:00:12;;;;;;;15.80;8.13;;;;;;;;;;4992782;28;20386;-61
2023/01/08 10:02:39;;;;;;;14.52;7.47;;;;;;;;;;4991188;28;20125;-61
2023/01/08 10:05:10;;;;;;;15.20;7.30;;;;;;;;;;4989855;28;20088;-62
2023/01/08 10:07:36;;;;;;;15.52;7.32;;;;;;;;;;4991079;28;20026;-62
2023/01/08 10:10:02;;;;;;;14.10;7.30;;;;;;;;;;4991997;28;20387;-62
2023/01/08 10:12:30;;;;;;;13.82;7.03;;;;;;;;;;4990607;28;20478;-63
2023/01/08 10:14:58;;;;;;;21.75;8.20;;;;;;;;;;4995143;28;20109;-61
2023/01/08 10:17:40;;;;;;;15.93;7.40;;;;;;;;;;4996064;28;20057;-63
2023/01/08 10:20:15;;;;;;;15.07;7.60;;;;;;;;;;4994691;28;20026;-63
2023/01/08 10:22:42;;;;;;;16.33;7.60;;;;;;;;;;4995719;28;20030;-63
2023/01/08 10:25:27;;;;;;;15.13;7.40;;;;;;;;;;4995163;28;20034;-64
2023/01/08 10:27:57;;;;;;;14.10;7.18;;;;;;;;;;4995867;28;20033;-62
2023/01/08 10:30:43;;;;;;;17.65;7.68;;;;;;;;;;4995850;28;20486;-64
2023/01/08 10:33:11;;;;;;;14.55;6.80;;;;;;;;;;4993502;28;20467;-63
2023/01/08 10:35:38;;;;;;;13.20;6.87;;;;;;;;;;4995733;28;20030;-62
2023/01/08 10:38:04;;;;;;;15.60;7.40;;;;;;;;;;4995984;28;20607;-63
2023/01/08 10:40:37;;;;;;;17.90;7.57;;;;;;;;;;4995691;28;20101;-67
2023/01/08 10:43:26;;;;;;;15.80;7.88;;;;;;;;;;4994964;28;20026;-66
2023/01/08 10:45:52;;;;;;;;;;;;;;;;;;4995137;28;20040;-67
2023/01/08 10:48:18;;;;;;;16.20;7.00;;;;;;;;;;4995747;28;19909;-67
2023/01/08 10:50:44;;;;;;;15.23;7.40;;;;;;;;;;4994226;28;20034;-66
2023/01/08 10:53:24;;;;;;;19.52;7.57;;;;;;;;;;4994684;28;20398;-67
2023/01/08 10:56:04;;;;;;;17.02;8.05;;;;;;;;;;4995236;28;20022;-67
2023/01/08 10:58:39;;;;;;;15.20;7.18;;;;;;;;;;4995555;28;20077;-68
2023/01/08 11:01:10;;;;;;;15.98;7.13;;;;;;;;;;4995461;28;20391;-67
2023/01/08 11:03:36;;;;;;;15.63;7.78;;;;;;;;;;4994532;28;20398;-66
2023/01/08 11:06:10;;;;;;;21.75;8.05;;;;;;;;;;4993901;28;20053;-69
2023/01/08 11:08:36;;;;;;;15.68;8.05;;;;;;;;;;4993935;28;20085;-66
2023/01/08 11:11:02;;;;;;;18.35;8.15;;;;;;;;;;4995602;28;20027;-66
2023/01/08 11:13:29;;;;;;;17.30;7.93;;;;;;;;;;4992558;28;20022;-67
2023/01/08 11:16:06;;;;;;;19.05;8.10;;;;;;;;;;4995195;28;20080;-67
2023/01/08 11:18:35;;;;;;;17.45;8.70;;;;;;;;;;4994881;28;20029;-63
2023/01/08 11:21:09;;;;;;;17.38;8.13;;;;;;;;;;4994911;28;20061;-64
2023/01/08 11:23:36;;;;;;;18.13;8.52;;;;;;;;;;4992839;28;20058;-64
2023/01/08 11:26:05;;;;;;;17.88;9.27;;;;;;;;;;4993600;28;20026;-67
2023/01/08 11:28:43;;;;;;;18.13;9.40;;;;;;;;;;4993540;28;20030;-64
2023/01/08 11:31:13;;;;;;;18.20;8.00;;;;;;;;;;4643861;28;9999822;-64
2023/01/08 11:33:39;;;;;;;19.77;8.27;;;;;;;;;;4987549;28;20030;-64
2023/01/08 11:36:18;;;;;;;16.65;8.50;;;;;;;;;;4990415;28;20304;-66
2023/01/08 11:38:44;;;;;;;15.00;8.00;;;;;;;;;;4991069;28;20019;-64
2023/01/08 11:41:16;;;;;;;16.67;7.93;;;;;;;;;;4975496;28;20394;-65
2023/01/08 11:43:58;;;;;;;17.17;7.78;;;;;;;;;;4970741;28;20450;-65
2023/01/08 11:46:37;;;;;;;16.38;7.43;;;;;;;;;;4971384;28;20101;-65
2023/01/08 11:49:12;;;;;;;17.30;7.75;;;;;;;;;;4982036;28;20026;-62
2023/01/08 11:51:54;;;;;;;16.23;7.78;;;;;;;;;;4990717;28;20030;-64
2023/01/08 11:54:33;;;;;;;13.88;7.53;;;;;;;;;;4990141;28;20034;-62
2023/01/08 11:56:59;;;;;;;15.77;7.60;;;;;;;;;;4981059;28;20100;-64
2023/01/08 11:59:44;;;;;;;17.63;8.07;;;;;;;;;;4970902;28;20483;-64
2023/01/08 12:02:19;;;;;;;14.43;7.75;;;;;;;;;;4971357;28;20022;-65
2023/01/08 12:05:04;;;;;;;16.83;8.73;;;;;;;;;;4970592;28;20053;-64
2023/01/08 12:07:33;;;;;;;18.48;8.10;;;;;;;;;;4970964;28;20459;-64
2023/01/08 12:10:15;;;;;;;14.13;7.25;;;;;;;;;;4969598;28;20101;-63
2023/01/08 12:12:50;;;;;;;15.20;7.25;;;;;;;;;;4971098;28;20502;-63
2023/01/08 12:15:25;;;;;;;15.07;7.47;;;;;;;;;;4971038;28;20081;-64
2023/01/08 12:18:10;;;;;;;14.32;7.65;;;;;;;;;;4970234;28;20031;-64
2023/01/08 12:20:43;;;;;;;16.15;7.78;;;;;;;;;;4969223;28;20558;-63
2023/01/08 12:23:28;;;;;;;15.82;8.48;;;;;;;;;;4971476;28;20546;-67
2023/01/08 12:26:13;;;;;;;16.75;7.45;;;;;;;;;;4972497;28;20023;-64
2023/01/08 12:28:48;;;;;;;17.48;7.85;;;;;;;;;;4974049;28;20030;-62
2023/01/08 12:31:20;;;;;;;18.52;7.50;;;;;;;;;;4976022;28;20042;-65
2023/01/08 12:33:49;;;;;;;15.32;7.47;;;;;;;;;;5043542;23;20095;-65
2023/01/08 12:36:20;;;;;;;18.58;8.38;;;;;;;;;;5031378;28;20026;-64
2023/01/08 12:38:52;;;;;;;15.85;7.60;;;;;;;;;;5032404;28;20033;-62
2023/01/08 12:41:19;;;;;;;16.40;7.57;;;;;;;;;;5032420;28;20026;-65
2023/01/08 12:43:57;;;;;;;15.73;7.75;;;;;;;;;;5046502;28;20036;-64
2023/01/08 12:46:24;;;;;;;15.23;7.53;;;;;;;;;;5032187;28;20048;-65
2023/01/08 12:48:52;;;;;;;17.17;8.18;;;;;;;;;;5031769;28;20264;-66
2023/01/08 12:51:39;;;;;;;14.10;7.60;;;;;;;;;;5032074;28;20489;-64
2023/01/08 12:54:05;;;;;;;15.68;7.72;;;;;;;;;;5031167;28;20074;-63
2023/01/08 12:56:37;;;;;;;17.48;8.10;;;;;;;;;;5032160;28;20021;-63
2023/01/08 12:59:11;;;;;;;14.57;8.00;;;;;;;;;;5032000;28;20033;-61
2023/01/08 13:01:49;;;;;;;17.58;8.90;;;;;;;;;;5031991;28;20021;-64
2023/01/08 13:04:15;;;;;;;14.95;7.60;;;;;;;;;;5029911;28;20036;-65
2023/01/08 13:07:11;;;;;;;14.85;7.00;;;;;;;;;;5032018;28;20104;-63
2023/01/08 13:09:37;;;;;;;16.05;7.55;;;;;;;;;;5018478;28;20045;-62
2023/01/08 13:12:03;;;;;;;16.35;7.15;;;;;;;;;;5030665;28;20030;-63
2023/01/08 13:14:39;;;;;;;14.35;6.80;;;;;;;;;;5031050;28;20037;-65
2023/01/08 13:17:07;;;;;;;15.80;8.10;;;;;;;;;;5031531;28;20028;-63
2023/01/08 13:19:41;;;;;;;13.55;7.03;;;;;;;;;;5031605;28;20013;-63
2023/01/08 13:22:37;;;;;;;16.17;7.20;;;;;;;;;;5030424;28;20036;-63
2023/01/08 13:25:17;;;;;;;16.63;6.80;;;;;;;;;;5022096;28;20041;-64
2023/01/08 13:27:44;;;;;;;14.50;6.88;;;;;;;;;;5031140;28;20022;-64
2023/01/08 13:30:29;;;;;;;14.75;8.13;;;;;;;;;;5031592;28;20028;-64
2023/01/08 13:32:55;;;;;;;39.80;36.72;;;;;;;;;;4679471;28;10000165;-59
2023/01/08 13:35:30;;;;;;;34.50;32.00;;;;;;;;;;5027161;28;20040;-57
2023/01/08 13:38:05;;;;;;;37.95;35.30;;;;;;;;;;5027109;28;20021;-58
2023/01/08 13:40:44;;;;;;;40.15;37.35;;;;;;;;;;5027631;28;20028;-57
2023/01/08 13:43:29;;;;;;;35.72;32.97;;;;;;;;;;5026740;28;20040;-59
2023/01/08 13:45:58;;;;;;;18.73;16.80;;;;;;;;;;5027990;28;20123;-57
2023/01/08 13:48:25;;;;;;;18.17;14.98;;;;;;;;;;5024049;28;20021;-56
2023/01/08 13:50:52;;;;;;;16.88;11.88;;;;;;;;;;5013969;28;20049;-58
2023/01/08 13:53:18;;;;;;;15.00;11.63;;;;;;;;;;5005749;28;20026;-53
2023/01/08 13:55:56;;;;;;;19.33;17.42;;;;;;;;;;5020094;28;20036;-58
2023/01/08 13:58:33;;;;;;;21.33;19.33;;;;;;;;;;5010583;28;20363;-54
2023/01/08 14:01:00;;;;;;;18.67;16.75;;;;;;;;;;5007552;28;20486;-59
2023/01/08 14:03:27;;;;;;;18.67;15.98;;;;;;;;;;5008894;28;20037;-58
2023/01/08 14:06:04;;;;;;;16.33;12.52;;;;;;;;;;5009527;28;20164;-57
2023/01/08 14:08:30;;;;;;;16.40;11.43;;;;;;;;;;5010900;28;20147;-60
2023/01/08 14:10:56;;;;;;;15.40;12.50;;;;;;;;;;5011007;28;20121;-60
2023/01/08 14:13:27;;;;;;;17.40;13.80;;;;;;;;;;4670518;28;9999993;-61
2023/01/08 14:15:54;;;;;;;15.77;12.20;;;;;;;;;;5027074;28;20276;-58
2023/01/08 14:18:20;;;;;;;21.17;15.75;;;;;;;;;;5027532;28;20080;-60
2023/01/08 14:20:50;;;;;;;17.48;15.68;;;;;;;;;;5027950;28;20030;-60
2023/01/08 14:23:37;;;;;;;15.50;13.70;;;;;;;;;;5026973;28;20123;-59
2023/01/08 14:26:05;;;;;;;15.45;13.00;;;;;;;;;;5027631;28;20034;-61
2023/01/08 14:28:31;;;;;;;14.93;10.27;;;;;;;;;;5028638;28;20359;-59
2023/01/08 14:30:57;;;;;;;14.23;9.00;;;;;;;;;;5029609;28;20033;-61
2023/01/08 14:33:26;;;;;;;15.05;7.68;;;;;;;;;;5029557;28;20037;-57
2023/01/08 14:35:53;;;;;;;14.07;7.40;;;;;;;;;;5030994;28;20097;-60
2023/01/08 14:38:20;;;;;;;13.00;7.50;;;;;;;;;;5030698;28;20108;-62